Time;durP1;ratioP1;P1;durP2;ratioP2;P2;SDS_P1;SDS_P2;PMS_P1;PMS_P2;Temp;Humidity;BMP_temperature;BMP_pressure;BME280_temperature;BME280_humidity;BME280_pressure;Samples;Min_cycle;Max_cycle;Signal;HPM_P1;HPM_P2
2023/01/03 00:00:15;;;;;;;;;;;3.80;99.90;;;;;;5091986;28;1150;-71
2023/01/03 00:02:41;;;;;;;;;;;3.90;99.90;;;;;;5091524;28;1226;-70
2023/01/03 00:05:07;;;;;;;;;;;3.90;99.90;;;;;;5091382;28;1914;-71
2023/01/03 00:07:32;;;;;;;;;;;3.90;99.90;;;;;;5063886;28;1179;-72
2023/01/03 00:09:59;;;;;;;;;;;3.90;99.90;;;;;;5071046;28;1295;-71
2023/01/03 00:12:25;;;;;;;;;;;3.90;99.90;;;;;;5091974;28;1103;-70
2023/01/03 00:14:51;;;;;;;;;;;3.90;99.90;;;;;;5087984;28;992;-70
2023/01/03 00:17:18;;;;;;;;;;;3.90;99.90;;;;;;5077488;28;1122;-70
2023/01/03 00:19:44;;;;;;;;;;;3.90;99.90;;;;;;5073176;28;1124;-71
2023/01/03 00:22:10;;;;;;;;;;;4.10;99.90;;;;;;5091616;28;1099;-70
2023/01/03 00:24:36;;;;;;;;;;;3.70;99.90;;;;;;5075866;28;1906;-70
2023/01/03 00:27:02;;;;;;;;;;;3.70;99.90;;;;;;5091784;28;1092;-70
2023/01/03 00:29:28;;;;;;;;;;;3.60;99.90;;;;;;5091538;28;1099;-71
2023/01/03 00:31:54;;;;;;;;;;;3.50;99.90;;;;;;5090929;28;1143;-72
2023/01/03 00:34:19;;;;;;;;;;;3.50;99.90;;;;;;5086286;28;1173;-71
2023/01/03 00:36:45;;;;;;;;;;;3.40;99.90;;;;;;5091429;28;1138;-72
2023/01/03 00:39:10;;;;;;;;;;;3.40;99.90;;;;;;5088149;28;1206;-71
2023/01/03 00:41:36;;;;;;;;;;;3.30;99.90;;;;;;5085717;28;1143;-72
2023/01/03 00:44:02;;;;;;;;;;;3.30;99.90;;;;;;5084463;28;1909;-71
2023/01/03 00:46:28;;;;;;;;;;;3.20;99.90;;;;;;5072383;28;1133;-71
2023/01/03 00:48:54;;;;;;;;;;;3.20;99.90;;;;;;5091017;28;1012;-70
2023/01/03 00:51:21;;;;;;;;;;;3.10;99.90;;;;;;5088190;28;1191;-71
2023/01/03 00:53:49;;;;;;;;;;;3.10;99.90;;;;;;5090962;28;1295;-70
2023/01/03 00:56:16;;;;;;;;;;;3.30;99.90;;;;;;5091129;28;1162;-70
2023/01/03 00:58:42;;;;;;;;;;;3.00;99.90;;;;;;5090609;28;1115;-71
2023/01/03 01:01:08;;;;;;;;;;;3.00;99.90;;;;;;5082762;28;1272;-71
2023/01/03 01:03:35;;;;;;;;;;;3.00;99.90;;;;;;5090785;28;1451;-70
2023/01/03 01:06:09;;;;;;;;;;;3.20;99.90;;;;;;5072599;28;1914;-71
2023/01/03 01:08:35;;;;;;;;;;;3.00;99.90;;;;;;5074427;28;1089;-70
2023/01/03 01:11:00;;;;;;;;;;;3.00;99.90;;;;;;5084868;28;1163;-70
2023/01/03 01:13:28;;;;;;;;;;;3.10;99.90;;;;;;5072030;28;1322;-70
2023/01/03 01:15:53;;;;;;;;;;;3.10;99.90;;;;;;5090810;28;1107;-71
2023/01/03 01:18:19;;;;;;;;;;;3.20;99.90;;;;;;5081288;28;1362;-70
2023/01/03 01:20:45;;;;;;;;;;;3.20;99.90;;;;;;5089865;28;1150;-70
2023/01/03 01:23:10;;;;;;;;;;;3.20;99.90;;;;;;5081456;28;1216;-71
2023/01/03 01:25:36;;;;;;;;;;;3.30;99.90;;;;;;5087706;28;1976;-71
2023/01/03 01:28:02;;;;;;;;;;;3.30;99.90;;;;;;5089806;28;1115;-71
2023/01/03 01:30:27;;;;;;;;;;;3.40;99.90;;;;;;5090396;28;1175;-71
2023/01/03 01:32:53;;;;;;;;;;;3.50;99.90;;;;;;5090270;28;1135;-71
2023/01/03 01:35:19;;;;;;;;;;;3.50;99.90;;;;;;5080345;28;1079;-71
2023/01/03 01:37:44;;;;;;;;;;;3.50;99.90;;;;;;5086204;28;1299;-71
2023/01/03 01:40:10;;;;;;;;;;;3.50;99.90;;;;;;5083873;28;1068;-71
2023/01/03 01:45:20;;;;;;;;;;;3.60;99.90;;;;;;5086660;28;1967;-72
2023/01/03 01:47:46;;;;;;;;;;;3.60;99.90;;;;;;5088803;28;2044;-71
2023/01/03 01:50:32;;;;;;;;;;;3.60;99.90;;;;;;5089510;28;1124;-71
2023/01/03 01:53:03;;;;;;;;;;;3.60;99.90;;;;;;5085838;28;1516;-71
2023/01/03 01:55:33;;;;;;;;;;;3.70;99.90;;;;;;5088899;28;1409;-71
2023/01/03 01:58:00;;;;;;;;;;;3.70;99.90;;;;;;5089950;28;1100;-71
2023/01/03 02:00:26;;;;;;;;;;;3.60;99.90;;;;;;5090072;28;1155;-72
2023/01/03 02:02:52;;;;;;;;;;;3.60;99.90;;;;;;5084065;28;1349;-71
2023/01/03 02:05:19;;;;;;;;;;;3.50;99.90;;;;;;5089915;28;1913;-71
2023/01/03 02:07:47;;;;;;;;;;;3.50;99.90;;;;;;5089696;28;1095;-71
2023/01/03 02:10:12;;;;;;;;;;;4.20;99.90;;;;;;5072668;28;1246;-71
2023/01/03 02:15:25;;;;;;;;;;;3.50;99.90;;;;;;5089626;28;1083;-72
2023/01/03 02:17:51;;;;;;;;;;;3.60;99.90;;;;;;5070067;28;1148;-71
2023/01/03 02:20:30;;;;;;;;;;;3.60;99.90;;;;;;5079681;28;1185;-71
2023/01/03 02:23:11;;;;;;;;;;;3.50;99.90;;;;;;5088213;28;1090;-71
2023/01/03 02:25:47;;;;;;;;;;;3.50;99.90;;;;;;5088820;28;1982;-71
2023/01/03 02:28:25;;;;;;;;;;;3.50;99.90;;;;;;5080878;28;1165;-71
2023/01/03 02:31:03;;;;;;;;;;;3.50;99.90;;;;;;5085522;28;1061;-71
2023/01/03 02:33:29;;;;;;;;;;;3.50;99.90;;;;;;5071040;28;1040;-71
2023/01/03 02:36:00;;;;;;;;;;;3.60;99.90;;;;;;5089329;28;1190;-71
2023/01/03 02:38:35;;;;;;;;;;;3.60;99.90;;;;;;5073765;28;1145;-71
2023/01/03 02:41:06;;;;;;;;;;;3.60;99.90;;;;;;5076126;28;1124;-71
2023/01/03 02:43:41;;;;;;;;;;;3.60;99.90;;;;;;5089188;28;1092;-71
2023/01/03 02:46:12;;;;;;;;;;;3.70;99.90;;;;;;5077958;28;1909;-71
2023/01/03 02:48:54;;;;;;;;;;;3.70;99.90;;;;;;5086342;28;1129;-71
2023/01/03 02:51:29;;;;;;;;;;;3.60;99.90;;;;;;5094034;28;1321;-71
2023/01/03 02:53:55;;;;;;;;;;;3.70;99.90;;;;;;5072989;28;1222;-71
2023/01/03 02:56:31;;;;;;;;;;;3.80;99.90;;;;;;5082673;28;1113;-71
2023/01/03 02:58:59;;;;;;;;;;;3.70;99.90;;;;;;5088638;28;1147;-71
2023/01/03 03:01:26;;;;;;;;;;;3.70;99.90;;;;;;5088805;28;1111;-71
2023/01/03 03:03:51;;;;;;;;;;;3.70;99.90;;;;;;5086909;28;1440;-71
2023/01/03 03:06:18;;;;;;;;;;;3.80;99.90;;;;;;5088381;28;1910;-71
2023/01/03 03:08:45;;;;;;;;;;;3.80;99.90;;;;;;5085971;28;1134;-71
2023/01/03 03:13:59;;;;;;;;;;;3.70;99.90;;;;;;5079539;28;1181;-71
2023/01/03 03:16:47;;;;;;;;;;;3.70;99.90;;;;;;5088508;28;1111;-71
2023/01/03 03:19:13;;;;;;;;;;;3.70;99.90;;;;;;5083466;28;1132;-71
2023/01/03 03:29:57;;;;;;;;;;;3.60;99.90;;;;;;5085488;28;1175;-71
2023/01/03 03:32:24;;;;;;;;;;;3.70;99.90;;;;;;5071552;28;1108;-71
2023/01/03 03:34:51;;;;;;;;;;;3.40;99.90;;;;;;5092034;28;1111;-71
2023/01/03 03:37:18;;;;;;;;;;;3.40;99.90;;;;;;5092176;28;1024;-71
2023/01/03 03:45:23;;;;;;;;;;;3.30;99.90;;;;;;5092133;28;1979;-71
2023/01/03 03:47:49;;;;;;;;;;;3.60;99.90;;;;;;5084091;28;1945;-71
2023/01/03 03:50:23;;;;;;;;;;;3.40;99.90;;;;;;5089014;28;1101;-71
2023/01/03 03:52:51;;;;;;;;;;;3.40;99.90;;;;;;5097898;28;1520;-71
2023/01/03 03:55:20;;;;;;;;;;;3.40;99.90;;;;;;5091328;28;1184;-71
2023/01/03 03:58:05;;;;;;;;;;;3.40;99.90;;;;;;5087065;28;1141;-71
2023/01/03 04:00:31;;;;;;;;;;;3.30;99.90;;;;;;5091954;28;1108;-71
2023/01/03 04:02:59;;;;;;;;;;;3.60;99.90;;;;;;5091440;28;1226;-71
2023/01/03 04:05:26;;;;;;;;;;;3.20;99.90;;;;;;5084886;28;1886;-71
2023/01/03 04:07:52;;;;;;;;;;;3.20;99.90;;;;;;5089641;28;1170;-71
2023/01/03 04:10:19;;;;;;;;;;;3.20;99.90;;;;;;5089088;28;1306;-71
2023/01/03 04:12:46;;;;;;;;;;;3.40;99.90;;;;;;5091920;28;1128;-71
2023/01/03 04:15:12;;;;;;;;;;;3.10;99.90;;;;;;5066886;28;1197;-71
2023/01/03 04:17:38;;;;;;;;;;;3.00;99.90;;;;;;5087325;28;989;-72
2023/01/03 04:20:04;;;;;;;;;;;2.90;99.90;;;;;;5091868;28;1100;-71
2023/01/03 04:22:29;;;;;;;;;;;2.90;99.90;;;;;;5089303;28;1040;-71
2023/01/03 04:24:55;;;;;;;;;;;2.90;99.90;;;;;;5079613;28;1913;-71
2023/01/03 04:27:21;;;;;;;;;;;3.00;99.90;;;;;;5091701;28;1115;-71
2023/01/03 04:29:47;;;;;;;;;;;2.70;99.90;;;;;;5091381;28;1180;-71
2023/01/03 04:32:13;;;;;;;;;;;2.70;99.90;;;;;;5065665;28;1175;-71
2023/01/03 04:34:39;;;;;;;;;;;2.60;99.90;;;;;;5091452;28;1123;-71
2023/01/03 04:37:04;;;;;;;;;;;2.50;99.90;;;;;;5091417;28;1127;-71
2023/01/03 04:39:30;;;;;;;;;;;2.30;99.90;;;;;;5090710;28;1190;-71
2023/01/03 04:41:56;;;;;;;;;;;2.10;99.90;;;;;;5090252;28;1201;-71
2023/01/03 04:44:21;;;;;;;;;;;2.00;99.90;;;;;;5090255;28;1894;-71
2023/01/03 04:46:47;;;;;;;;;;;1.90;99.90;;;;;;5091222;28;1195;-71
2023/01/03 04:49:13;;;;;;;;;;;1.80;99.90;;;;;;5088161;28;1147;-71
2023/01/03 04:51:39;;;;;;;;;;;1.90;99.90;;;;;;5072858;28;1327;-71
2023/01/03 04:54:04;;;;;;;;;;;2.00;99.90;;;;;;5091234;28;1107;-71
2023/01/03 04:56:31;;;;;;;;;;;2.10;99.90;;;;;;5073026;28;1108;-71
2023/01/03 04:58:57;;;;;;;;;;;2.20;99.90;;;;;;5087644;28;1138;-72
2023/01/03 05:01:23;;;;;;;;;;;2.30;99.90;;;;;;5091153;28;1071;-71
2023/01/03 05:03:49;;;;;;;;;;;2.30;99.90;;;;;;5073053;28;1476;-71
2023/01/03 05:06:15;;;;;;;;;;;2.30;99.90;;;;;;5071559;28;1906;-71
2023/01/03 05:08:43;;;;;;;;;;;2.30;99.90;;;;;;5060325;28;1122;-71
2023/01/03 05:11:09;;;;;;;;;;;2.60;99.90;;;;;;5090890;28;1107;-72
2023/01/03 05:13:34;;;;;;;;;;;2.40;99.90;;;;;;5090068;28;1100;-71
2023/01/03 05:16:07;;;;;;;;;;;2.50;99.90;;;;;;5086935;28;1139;-71
2023/01/03 05:18:33;;;;;;;;;;;2.40;99.90;;;;;;5090745;28;1115;-71
2023/01/03 05:26:35;;;;;;;;;;;2.50;99.90;;;;;;5060968;28;1189;-71
2023/01/03 05:29:01;;;;;;;;;;;2.50;99.90;;;;;;5090249;28;1123;-71
2023/01/03 05:31:27;;;;;;;;;;;2.50;99.90;;;;;;5090621;28;1092;-71
2023/01/03 05:33:52;;;;;;;;;;;2.50;99.90;;;;;;5084922;28;1123;-71
2023/01/03 05:36:18;;;;;;;;;;;2.40;99.90;;;;;;5085909;28;1024;-71
2023/01/03 05:38:43;;;;;;;;;;;2.50;99.90;;;;;;5081042;28;1270;-71
2023/01/03 05:41:11;;;;;;;;;;;2.50;99.90;;;;;;5089667;28;1104;-71
2023/01/03 05:43:37;;;;;;;;;;;2.60;99.90;;;;;;5077647;28;1167;-71
2023/01/03 05:46:02;;;;;;;;;;;2.60;99.90;;;;;;5089464;28;2001;-71
2023/01/03 05:48:28;;;;;;;;;;;2.70;99.90;;;;;;5089759;28;1067;-72
2023/01/03 05:50:56;;;;;;;;;;;2.70;99.90;;;;;;5088666;28;1312;-72
2023/01/03 05:53:21;;;;;;;;;;;2.80;99.90;;;;;;5067500;28;1208;-72
2023/01/03 05:55:47;;;;;;;;;;;2.90;99.90;;;;;;5088888;28;1182;-71
2023/01/03 05:58:13;;;;;;;;;;;2.90;99.90;;;;;;5089822;28;1091;-72
2023/01/03 06:00:38;;;;;;;;;;;2.90;99.90;;;;;;5063056;28;1108;-71
2023/01/03 06:03:04;;;;;;;;;;;2.90;99.90;;;;;;5066504;28;1183;-72
2023/01/03 06:05:30;;;;;;;;;;;2.90;99.90;;;;;;5089607;28;1918;-72
2023/01/03 06:07:58;;;;;;;;;;;3.00;99.90;;;;;;5089300;28;1103;-71
2023/01/03 06:10:24;;;;;;;;;;;3.10;99.90;;;;;;5080388;28;1259;-72
2023/01/03 06:12:49;;;;;;;;;;;3.10;99.90;;;;;;5089322;28;1167;-72
2023/01/03 06:15:15;;;;;;;;;;;3.20;99.90;;;;;;5089458;28;1176;-71
2023/01/03 06:17:53;;;;;;;;;;;3.10;99.90;;;;;;5087603;28;1186;-71
2023/01/03 06:20:19;;;;;;;;;;;3.20;99.90;;;;;;5070949;28;1100;-72
2023/01/03 06:22:45;;;;;;;;;;;3.10;99.90;;;;;;5088927;28;1151;-71
2023/01/03 06:25:11;;;;;;;;;;;3.10;99.90;;;;;;5089509;28;1983;-72
2023/01/03 06:27:37;;;;;;;;;;;3.10;99.90;;;;;;5080604;28;1088;-71
2023/01/03 06:30:03;;;;;;;;;;;3.10;99.90;;;;;;5088803;28;1158;-72
2023/01/03 06:32:29;;;;;;;;;;;3.10;99.90;;;;;;5089382;28;1084;-71
2023/01/03 06:34:55;;;;;;;;;;;3.20;99.90;;;;;;5089027;28;1174;-72
2023/01/03 06:37:21;;;;;;;;;;;3.20;99.90;;;;;;5066674;28;1130;-71
2023/01/03 06:39:46;;;;;;;;;;;3.30;99.90;;;;;;5079741;28;1156;-71
2023/01/03 06:53:15;;;;;;;;;;;3.30;99.90;;;;;;5090809;28;1508;-72
2023/01/03 06:55:42;;;;;;;;;;;3.40;99.90;;;;;;5088997;28;1088;-71
2023/01/03 06:58:07;;;;;;;;;;;3.40;99.90;;;;;;5091570;28;1119;-72
2023/01/03 07:00:34;;;;;;;;;;;3.40;99.90;;;;;;5093427;28;1100;-72
2023/01/03 07:03:00;;;;;;;;;;;3.40;99.90;;;;;;5084896;28;1206;-72
2023/01/03 07:05:25;;;;;;;;;;;3.30;99.90;;;;;;5092209;28;1992;-72
2023/01/03 07:07:51;;;;;;;;;;;3.30;99.90;;;;;;5093250;28;1108;-72
2023/01/03 07:10:17;;;;;;;;;;;3.30;99.90;;;;;;5083537;28;1520;-72
2023/01/03 07:15:26;;;;;;;;;;;3.20;99.90;;;;;;5083435;28;1184;-72
2023/01/03 07:17:53;;;;;;;;;;;3.20;99.90;;;;;;5092893;28;1112;-72
2023/01/03 07:20:19;;;;;;;;;;;3.10;99.90;;;;;;5082918;28;1123;-71
2023/01/03 07:22:44;;;;;;;;;;;3.10;99.90;;;;;;5090315;28;1108;-72
2023/01/03 07:25:10;;;;;;;;;;;3.00;99.90;;;;;;5092784;28;1921;-71
2023/01/03 07:27:36;;;;;;;;;;;3.00;99.90;;;;;;5091716;28;1092;-71
2023/01/03 07:30:01;;;;;;;;;;;3.00;99.90;;;;;;5087221;28;1106;-71
2023/01/03 07:32:27;;;;;;;;;;;3.00;99.90;;;;;;5092860;28;1163;-72
2023/01/03 07:34:53;;;;;;;;;;;3.00;99.90;;;;;;5091729;28;1107;-71
2023/01/03 07:37:18;;;;;;;;;;;2.90;99.90;;;;;;5090115;28;1084;-72
2023/01/03 07:39:44;;;;;;;;;;;2.90;99.90;;;;;;5092237;28;1044;-71
2023/01/03 07:44:54;;;;;;;;;;;2.90;99.90;;;;;;5092446;28;1914;-71
2023/01/03 07:47:20;;;;;;;;;;;3.50;99.90;;;;;;5085247;28;1077;-71
2023/01/03 07:49:45;;;;;;;;;;;2.90;99.90;;;;;;5092158;28;1084;-72
2023/01/03 07:52:11;;;;;;;;;;;2.90;99.90;;;;;;5097522;28;1330;-71
2023/01/03 07:54:37;;;;;;;;;;;2.80;99.90;;;;;;5091591;28;1200;-72
2023/01/03 07:57:02;;;;;;;;;;;2.80;99.90;;;;;;5077999;28;1177;-71
2023/01/03 07:59:28;;;;;;;;;;;2.90;99.90;;;;;;5092490;28;1103;-71
2023/01/03 08:01:54;;;;;;;;;;;2.80;99.90;;;;;;5091254;28;1155;-71
2023/01/03 08:04:19;;;;;;;;;;;2.90;99.90;;;;;;5084594;28;1914;-72
2023/01/03 08:06:45;;;;;;;;;;;2.90;99.90;;;;;;5091735;28;1097;-71
2023/01/03 08:14:39;;;;;;;;;;;2.90;99.90;;;;;;5089722;28;1178;-71
2023/01/03 08:17:05;;;;;;;;;;;2.80;99.90;;;;;;5091199;28;1196;-71
2023/01/03 08:19:30;;;;;;;;;;;2.90;99.90;;;;;;5091578;28;1111;-71
2023/01/03 08:21:56;;;;;;;;;;;2.90;99.90;;;;;;5091253;28;1119;-71
2023/01/03 08:24:22;;;;;;;;;;;3.00;99.90;;;;;;5091203;28;1914;-71
2023/01/03 08:26:47;;;;;;;;;;;3.00;99.90;;;;;;5091612;28;1092;-71
2023/01/03 08:29:13;;;;;;;;;;;3.10;99.90;;;;;;5073471;28;1127;-71
2023/01/03 08:31:40;;;;;;;;;;;3.10;99.90;;;;;;5085527;28;1266;-71
2023/01/03 08:34:07;;;;;;;;;;;3.10;99.90;;;;;;5079326;28;1246;-71
2023/01/03 08:36:37;;;;;;;;;;;3.20;99.90;;;;;;5090975;28;1096;-72
2023/01/03 08:39:04;;;;;;;;;;;3.20;99.90;;;;;;5086500;28;1140;-71
2023/01/03 08:41:32;;;;;;;;;;;3.20;99.90;;;;;;5082577;28;1227;-71
2023/01/03 08:43:59;;;;;;;;;;;3.30;99.90;;;;;;5083719;28;1191;-71
2023/01/03 08:46:26;;;;;;;;;;;3.30;99.90;;;;;;5081932;28;1917;-71
2023/01/03 08:48:51;;;;;;;;;;;3.40;99.90;;;;;;5086166;28;1151;-71
2023/01/03 08:51:17;;;;;;;;;;;3.50;99.90;;;;;;5076904;28;1343;-71
2023/01/03 08:53:42;;;;;;;;;;;3.40;99.90;;;;;;5092239;28;1111;-71
2023/01/03 08:56:08;;;;;;;;;;;3.80;99.90;;;;;;5090469;28;1361;-71
2023/01/03 08:58:34;;;;;;;;;;;3.50;99.90;;;;;;5079085;28;1190;-71
2023/01/03 09:01:01;;;;;;;;;;;3.50;99.90;;;;;;5091148;28;1112;-71
2023/01/03 09:03:26;;;;;;;;;;;3.60;99.90;;;;;;5071215;28;1151;-71
2023/01/03 09:05:52;;;;;;;;;;;3.50;99.90;;;;;;5080407;28;1975;-71
2023/01/03 09:08:18;;;;;;;;;;;3.50;99.90;;;;;;5078454;28;1188;-71
2023/01/03 09:10:45;;;;;;;;;;;3.50;99.90;;;;;;5075811;28;1121;-71
2023/01/03 09:13:10;;;;;;;;;;;3.60;99.90;;;;;;5086213;28;1112;-71
2023/01/03 09:15:36;;;;;;;;;;;3.60;99.90;;;;;;5078699;28;1211;-72
2023/01/03 09:18:02;;;;;;;;;;;3.60;99.90;;;;;;5082067;28;1325;-71
2023/01/03 09:20:27;;;;;;;;;;;3.60;99.90;;;;;;5079580;28;1238;-72
2023/01/03 09:22:53;;;;;;;;;;;3.60;99.90;;;;;;5081683;28;1230;-71
2023/01/03 09:25:19;;;;;;;;;;;3.70;99.90;;;;;;5079841;28;1985;-71
2023/01/03 09:27:46;;;;;;;;;;;3.80;99.90;;;;;;5083181;28;1235;-72
2023/01/03 09:30:13;;;;;;;;;;;3.90;99.90;;;;;;5082286;28;1254;-72
2023/01/03 09:32:38;;;;;;;;;;;4.00;99.90;;;;;;5083284;28;1266;-72
2023/01/03 09:35:04;;;;;;;;;;;4.10;99.90;;;;;;5083337;28;1136;-71
2023/01/03 09:37:30;;;;;;;;;;;4.10;99.90;;;;;;5088624;28;1103;-71
2023/01/03 09:39:55;;;;;;;;;;;3.90;99.90;;;;;;5081649;28;1089;-72
2023/01/03 09:45:10;;;;;;;;;;;3.60;99.90;;;;;;5072112;28;2006;-72
2023/01/03 09:47:36;;;;;;;;;;;3.50;99.90;;;;;;5089376;28;1198;-71
2023/01/03 09:50:02;;;;;;;;;;;3.30;99.90;;;;;;5089115;28;1103;-71
2023/01/03 10:04:10;;;;;;;;;;;2.90;99.90;;;;;;5081517;28;1487;-71
2023/01/03 10:06:37;;;;;;;;;;;2.90;99.90;;;;;;5071356;28;1975;-71
2023/01/03 10:09:18;;;;;;;;;;;2.70;99.90;;;;;;5083901;28;1200;-71
2023/01/03 10:11:51;;;;;;;;;;;2.80;99.90;;;;;;5089787;28;1076;-71
2023/01/03 10:14:25;;;;;;;;;;;2.90;99.90;;;;;;5089221;28;1187;-72
2023/01/03 10:16:54;;;;;;;;;;;2.90;99.90;;;;;;5065678;28;1115;-72
2023/01/03 10:19:27;;;;;;;;;;;2.90;99.90;;;;;;5085464;28;1127;-72
2023/01/03 10:21:54;;;;;;;;;;;3.00;99.90;;;;;;5082745;28;1163;-71
2023/01/03 10:24:21;;;;;;;;;;;3.00;99.90;;;;;;5067629;28;2737;-71
2023/01/03 10:26:50;;;;;;;;;;;2.90;99.90;;;;;;5066567;28;2329;-71
2023/01/03 10:29:16;;;;;;;;;;;2.90;99.90;;;;;;5070413;28;1227;-71
2023/01/03 10:32:05;;;;;;;;;;;3.00;99.90;;;;;;5075413;28;2291;-71
2023/01/03 10:34:31;;;;;;;;;;;3.10;99.90;;;;;;5071573;28;1494;-71
2023/01/03 10:36:56;;;;;;;;;;;3.20;99.90;;;;;;5064893;28;1124;-71
2023/01/03 10:39:28;;;;;;;;;;;3.30;99.90;;;;;;5070908;28;1611;-71
2023/01/03 10:41:56;;;;;;;;;;;3.30;99.90;;;;;;5079526;28;1120;-72
2023/01/03 10:44:24;;;;;;;;;;;3.40;99.90;;;;;;5084040;28;2514;-71
2023/01/03 10:46:52;;;;;;;;;;;3.50;99.90;;;;;;5088752;28;1174;-71
2023/01/03 10:49:20;;;;;;;;;;;3.50;99.90;;;;;;5089333;28;1151;-72
2023/01/03 10:51:45;;;;;;;;;;;3.60;99.90;;;;;;5085142;28;1251;-71
2023/01/03 10:54:20;;;;;;;;;;;3.70;99.90;;;;;;5077975;28;1105;-71
2023/01/03 10:56:46;;;;;;;;;;;3.70;99.90;;;;;;5089135;28;1084;-71
2023/01/03 10:59:15;;;;;;;;;;;3.80;99.90;;;;;;5084738;28;1111;-72
2023/01/03 11:01:54;;;;;;;;;;;3.90;99.90;;;;;;5085345;28;1108;-71
2023/01/03 11:04:20;;;;;;;;;;;4.00;99.90;;;;;;5088179;28;1906;-71
2023/01/03 11:07:00;;;;;;;;;;;4.10;99.90;;;;;;5083324;28;1104;-71
2023/01/03 11:09:35;;;;;;;;;;;4.10;99.90;;;;;;5076699;28;1173;-72
2023/01/03 11:12:03;;;;;;;;;;;4.20;99.90;;;;;;5083242;28;1204;-71
2023/01/03 11:14:29;;;;;;;;;;;4.30;99.90;;;;;;5086494;28;1092;-71
2023/01/03 11:16:59;;;;;;;;;;;4.40;99.90;;;;;;5088403;28;1078;-71
2023/01/03 11:19:26;;;;;;;;;;;4.40;99.90;;;;;;5081388;28;1178;-71
2023/01/03 11:22:03;;;;;;;;;;;4.80;99.90;;;;;;5088789;28;1155;-71
2023/01/03 11:24:36;;;;;;;;;;;4.50;99.90;;;;;;5088454;28;1918;-71
2023/01/03 11:27:10;;;;;;;;;;;4.60;99.90;;;;;;5088173;28;1127;-72
2023/01/03 11:29:37;;;;;;;;;;;4.70;99.90;;;;;;5088804;28;1162;-72
2023/01/03 11:32:02;;;;;;;;;;;4.70;99.90;;;;;;5087680;28;1107;-71
2023/01/03 11:34:43;;;;;;;;;;;4.80;99.90;;;;;;5088305;28;1162;-71
2023/01/03 11:37:16;;;;;;;;;;;4.80;99.90;;;;;;5080372;28;1187;-72
2023/01/03 11:39:54;;;;;;;;;;;4.90;99.90;;;;;;5077411;28;1004;-72
2023/01/03 11:42:20;;;;;;;;;;;5.00;99.90;;;;;;5088759;28;1143;-72
2023/01/03 11:45:04;;;;;;;;;;;5.10;99.90;;;;;;5091265;28;1969;-72
2023/01/03 11:47:42;;;;;;;;;;;5.20;99.90;;;;;;5060821;28;1062;-71
2023/01/03 11:50:18;;;;;;;;;;;5.30;99.90;;;;;;5092511;28;1155;-72
2023/01/03 11:52:49;;;;;;;;;;;5.50;99.90;;;;;;5097772;28;1361;-72
2023/01/03 11:55:21;;;;;;;;;;;5.60;99.90;;;;;;5081967;28;1161;-72
2023/01/03 11:58:06;;;;;;;;;;;5.80;99.90;;;;;;5092048;28;1162;-72
2023/01/03 12:00:31;;;;;;;;;;;5.90;99.90;;;;;;5071572;28;1095;-72
2023/01/03 12:02:57;;;;;;;;;;;6.00;99.90;;;;;;5073072;28;1215;-72
2023/01/03 12:05:33;;;;;;;;;;;6.00;99.90;;;;;;5070513;28;2591;-71
2023/01/03 12:08:02;;;;;;;;;;;5.90;99.90;;;;;;5067479;28;2329;-72
2023/01/03 12:10:35;;;;;;;;;;;5.80;99.90;;;;;;5083896;28;2349;-72
2023/01/03 12:13:09;;;;;;;;;;;5.80;99.90;;;;;;5081526;28;2315;-72
2023/01/03 12:15:41;;;;;;;;;;;5.80;99.90;;;;;;5070173;28;1208;-72
2023/01/03 12:18:21;;;;;;;;;;;5.70;99.90;;;;;;5084419;28;1112;-72
2023/01/03 12:20:53;;;;;;;;;;;5.70;99.90;;;;;;5081908;28;1057;-72
2023/01/03 12:23:25;;;;;;;;;;;5.60;99.90;;;;;;5082051;28;1277;-72
2023/01/03 12:25:53;;;;;;;;;;;5.60;99.90;;;;;;5085953;28;1902;-72
2023/01/03 12:28:22;;;;;;;;;;;5.70;99.90;;;;;;5086051;28;1246;-72
2023/01/03 12:30:55;;;;;;;;;;;5.80;99.90;;;;;;5085898;28;1180;-72
2023/01/03 12:33:34;;;;;;;;;;;5.80;99.90;;;;;;5071152;28;1238;-72
2023/01/03 12:36:04;;;;;;;;;;;5.80;99.90;;;;;;5055401;28;1548;-72
2023/01/03 12:38:34;;;;;;;;;;;5.80;99.90;;;;;;5085427;28;1171;-72
2023/01/03 12:41:06;;;;;;;;;;;5.90;99.90;;;;;;5078621;28;1093;-72
2023/01/03 12:43:36;;;;;;;;;;;5.80;99.90;;;;;;5072606;28;1124;-72
2023/01/03 12:46:02;;;;;;;;;;;5.70;99.90;;;;;;5072690;28;1886;-72
2023/01/03 12:48:37;;;;;;;;;;;5.80;99.90;;;;;;5078530;28;1171;-72
2023/01/03 12:51:03;;;;;;;;;;;5.80;99.90;;;;;;5092485;28;1384;-72
2023/01/03 12:53:29;;;;;;;;;;;5.80;99.90;;;;;;5081765;28;1073;-72
2023/01/03 12:56:18;;;;;;;;;;;5.80;99.90;;;;;;5074285;28;1285;-72
2023/01/03 12:58:52;;;;;;;;;;;5.90;99.90;;;;;;5074444;28;1239;-72
2023/01/03 13:01:27;;;;;;;;;;;5.80;99.90;;;;;;5080230;28;1188;-73
2023/01/03 13:04:01;;;;;;;;;;;5.90;99.90;;;;;;5082103;28;1179;-72
2023/01/03 13:06:30;;;;;;;;;;;5.90;99.90;;;;;;5081047;28;2012;-72
2023/01/03 13:08:59;;;;;;;;;;;5.90;99.90;;;;;;5076498;28;1309;-72
2023/01/03 13:11:24;;;;;;;;;;;6.00;99.90;;;;;;5088074;28;1293;-72
2023/01/03 13:13:53;;;;;;;;;;;6.00;99.90;;;;;;5085610;28;1177;-72
2023/01/03 13:16:29;;;;;;;;;;;6.00;99.90;;;;;;5089522;28;1162;-72
2023/01/03 13:18:55;;;;;;;;;;;5.90;99.90;;;;;;5081618;28;1246;-72
2023/01/03 13:21:39;;;;;;;;;;;6.00;99.90;;;;;;5069803;28;1109;-72
2023/01/03 13:24:06;;;;;;;;;;;6.00;99.90;;;;;;5088364;28;1291;-72
2023/01/03 13:26:31;;;;;;;;;;;5.90;99.90;;;;;;5071678;28;2003;-73
2023/01/03 13:29:16;;;;;;;;;;;5.90;99.90;;;;;;5072154;28;1202;-72
2023/01/03 13:31:42;;;;;;;;;;;6.00;99.90;;;;;;5083410;28;1103;-72
2023/01/03 13:34:08;;;;;;;;;;;6.00;99.90;;;;;;5068011;28;1041;-72
2023/01/03 13:36:53;;;;;;;;;;;6.00;99.90;;;;;;5080546;28;1254;-72
2023/01/03 13:39:30;;;;;;;;;;;6.10;99.90;;;;;;5081294;28;1224;-73
2023/01/03 13:41:55;;;;;;;;;;;6.00;99.90;;;;;;5077431;28;1259;-72
2023/01/03 13:44:22;;;;;;;;;;;6.10;99.90;;;;;;5089795;28;1913;-73
2023/01/03 13:46:48;;;;;;;;;;;6.10;99.90;;;;;;5083158;28;1298;-72
2023/01/03 13:49:17;;;;;;;;;;;6.10;99.90;;;;;;5084794;28;1180;-73
2023/01/03 13:51:43;;;;;;;;;;;6.10;99.90;;;;;;5082155;28;1231;-72
2023/01/03 13:54:09;;;;;;;;;;;6.10;99.90;;;;;;5077095;28;1196;-72
2023/01/03 13:56:41;;;;;;;;;;;6.10;99.90;;;;;;5085093;28;1096;-73
2023/01/03 13:59:13;;;;;;;;;;;6.10;99.90;;;;;;5085477;28;1200;-72
2023/01/03 14:01:39;;;;;;;;;;;6.10;99.90;;;;;;5089107;28;1194;-73
2023/01/03 14:04:13;;;;;;;;;;;6.10;99.90;;;;;;5082437;28;1439;-72
2023/01/03 14:06:47;;;;;;;;;;;6.10;99.90;;;;;;5085888;28;1906;-72
2023/01/03 14:09:20;;;;;;;;;;;6.10;99.90;;;;;;5068466;28;1251;-72
2023/01/03 14:12:02;;;;;;;;;;;6.20;99.90;;;;;;5058284;28;1136;-72
2023/01/03 14:14:29;;;;;;;;;;;6.20;99.90;;;;;;5079943;28;1263;-72
2023/01/03 14:16:56;;;;;;;;;;;6.30;99.90;;;;;;5081617;28;1230;-72
2023/01/03 14:19:24;;;;;;;;;;;6.40;99.90;;;;;;5079795;28;2127;-72
2023/01/03 14:22:01;;;;;;;;;;;6.40;99.90;;;;;;5076283;28;1258;-72
2023/01/03 14:24:32;;;;;;;;;;;6.40;99.90;;;;;;5079432;28;3026;-72
2023/01/03 14:27:03;;;;;;;;;;;6.50;99.90;;;;;;5066235;28;1537;-72
2023/01/03 14:29:29;;;;;;;;;;;6.40;99.90;;;;;;5088728;28;1017;-72
2023/01/03 14:31:55;;;;;;;;;;;6.50;99.90;;;;;;5082216;28;1182;-72
2023/01/03 14:34:30;;;;;;;;;;;6.50;99.90;;;;;;5081727;28;1277;-72
2023/01/03 14:37:00;;;;;;;;;;;6.50;99.90;;;;;;5084164;28;1255;-72
2023/01/03 14:39:31;;;;;;;;;;;6.00;99.90;;;;;;5087450;28;1222;-72
2023/01/03 14:41:58;;;;;;;;;;;6.60;99.90;;;;;;5087374;28;1218;-72
2023/01/03 14:44:24;;;;;;;;;;;6.50;99.90;;;;;;5088324;28;1989;-72
2023/01/03 14:46:52;;;;;;;;;;;6.60;99.90;;;;;;5086872;28;2368;-72
2023/01/03 14:49:20;;;;;;;;;;;6.50;99.90;;;;;;5080257;28;2791;-72
2023/01/03 14:51:45;;;;;;;;;;;6.50;99.90;;;;;;5080642;28;1357;-72
2023/01/03 14:54:15;;;;;;;;;;;6.60;99.90;;;;;;5088645;28;2598;-72
2023/01/03 14:56:42;;;;;;;;;;;6.50;99.90;;;;;;5067303;28;1202;-72
2023/01/03 14:59:09;;;;;;;;;;;6.60;99.90;;;;;;5060690;28;1178;-72
2023/01/03 15:01:35;;;;;;;;;;;6.60;99.90;;;;;;5069114;28;1154;-72
2023/01/03 15:04:01;;;;;;;;;;;6.60;99.90;;;;;;5080375;28;1525;-73
2023/01/03 15:06:28;;;;;;;;;;;6.60;99.90;;;;;;5087674;28;2420;-72
2023/01/03 15:08:55;;;;;;;;;;;6.70;99.90;;;;;;5082147;28;1124;-72
2023/01/03 15:11:23;;;;;;;;;;;6.70;99.90;;;;;;5070085;28;1204;-72
2023/01/03 15:13:49;;;;;;;;;;;6.70;99.90;;;;;;5070475;28;1144;-72
2023/01/03 15:16:23;;;;;;;;;;;6.70;99.90;;;;;;5070172;28;1229;-73
2023/01/03 15:18:49;;;;;;;;;;;6.70;99.90;;;;;;5086980;28;1304;-73
2023/01/03 15:21:16;;;;;;;;;;;6.70;99.90;;;;;;5057814;28;1088;-73
2023/01/03 15:23:43;;;;;;;;;;;6.80;99.90;;;;;;5086929;28;1170;-73
2023/01/03 15:26:24;;;;;;;;;;;6.80;99.90;;;;;;5085088;28;1991;-73
2023/01/03 15:28:52;;;;;;;;;;;6.80;99.90;;;;;;5057197;28;1306;-73
2023/01/03 15:31:22;;;;;;;;;;;6.90;99.90;;;;;;5074070;28;1120;-73
2023/01/03 15:34:06;;;;;;;;;;;6.90;99.90;;;;;;5073335;28;1047;-72
2023/01/03 15:36:32;;;;;;;;;;;6.90;99.90;;;;;;5051849;28;1099;-73
2023/01/03 15:38:58;;;;;;;;;;;6.90;99.90;;;;;;5089431;28;1302;-72
2023/01/03 15:44:15;;;;;;;;;;;7.00;99.90;;;;;;5060701;28;1160;-72
2023/01/03 15:46:43;;;;;;;;;;;7.00;99.90;;;;;;5072403;28;1910;-72
2023/01/03 15:49:11;;;;;;;;;;;7.00;99.90;;;;;;5091936;28;1250;-73
2023/01/03 15:51:36;;;;;;;;;;;7.10;99.90;;;;;;5079667;28;1298;-72
2023/01/03 15:54:02;;;;;;;;;;;7.10;99.90;;;;;;5086440;28;1218;-72
2023/01/03 15:56:30;;;;;;;;;;;7.10;99.90;;;;;;5092341;28;1111;-72